sensor_id;sensor_type;location;lat;lon;timestamp;P1;durP1;ratioP1;P2;durP2;ratioP2
51828;SDS011;37881;48.024;8.774;2023-04-06T00:00:13;18.15;;;9.10;;
51828;SDS011;37881;48.024;8.774;2023-04-06T00:02:40;17.10;;;8.95;;
51828;SDS011;37881;48.024;8.774;2023-04-06T00:05:07;16.77;;;8.95;;
51828;SDS011;37881;48.024;8.774;2023-04-06T00:07:34;54.67;;;26.48;;
51828;SDS011;37881;48.024;8.774;2023-04-06T00:10:01;18.03;;;9.60;;
51828;SDS011;37881;48.024;8.774;2023-04-06T00:12:29;20.88;;;10.52;;
51828;SDS011;37881;48.024;8.774;2023-04-06T00:14:55;18.52;;;9.15;;
51828;SDS011;37881;48.024;8.774;2023-04-06T00:17:22;19.52;;;10.10;;
51828;SDS011;37881;48.024;8.774;2023-04-06T00:19:49;22.60;;;10.25;;
51828;SDS011;37881;48.024;8.774;2023-04-06T00:22:15;19.90;;;9.90;;
51828;SDS011;37881;48.024;8.774;2023-04-06T00:24:42;20.50;;;10.10;;
51828;SDS011;37881;48.024;8.774;2023-04-06T00:27:09;20.40;;;9.80;;
51828;SDS011;37881;48.024;8.774;2023-04-06T00:29:35;18.88;;;9.63;;
51828;SDS011;37881;48.024;8.774;2023-04-06T00:32:03;18.10;;;9.90;;
51828;SDS011;37881;48.024;8.774;2023-04-06T00:34:29;19.03;;;9.80;;
51828;SDS011;37881;48.024;8.774;2023-04-06T00:36:56;18.05;;;9.13;;
51828;SDS011;37881;48.024;8.774;2023-04-06T00:39:23;17.15;;;9.70;;
51828;SDS011;37881;48.024;8.774;2023-04-06T00:41:51;21.48;;;9.60;;
51828;SDS011;37881;48.024;8.774;2023-04-06T00:44:19;18.00;;;9.38;;
51828;SDS011;37881;48.024;8.774;2023-04-06T00:46:46;16.87;;;9.33;;
51828;SDS011;37881;48.024;8.774;2023-04-06T00:49:13;18.83;;;9.65;;
51828;SDS011;37881;48.024;8.774;2023-04-06T00:51:40;20.00;;;9.52;;
51828;SDS011;37881;48.024;8.774;2023-04-06T00:54:06;17.10;;;9.27;;
51828;SDS011;37881;48.024;8.774;2023-04-06T00:56:33;19.63;;;10.02;;
51828;SDS011;37881;48.024;8.774;2023-04-06T00:59:00;17.80;;;9.43;;
51828;SDS011;37881;48.024;8.774;2023-04-06T01:01:28;18.70;;;9.68;;
51828;SDS011;37881;48.024;8.774;2023-04-06T01:03:55;18.60;;;9.95;;
51828;SDS011;37881;48.024;8.774;2023-04-06T01:06:22;18.35;;;9.93;;
51828;SDS011;37881;48.024;8.774;2023-04-06T01:08:48;19.38;;;9.48;;
51828;SDS011;37881;48.024;8.774;2023-04-06T01:11:15;17.93;;;9.40;;
51828;SDS011;37881;48.024;8.774;2023-04-06T01:13:42;21.25;;;10.30;;
51828;SDS011;37881;48.024;8.774;2023-04-06T01:16:08;22.83;;;10.77;;
51828;SDS011;37881;48.024;8.774;2023-04-06T01:18:37;17.73;;;9.48;;
51828;SDS011;37881;48.024;8.774;2023-04-06T01:21:04;19.05;;;9.70;;
51828;SDS011;37881;48.024;8.774;2023-04-06T01:23:31;18.23;;;9.13;;
51828;SDS011;37881;48.024;8.774;2023-04-06T01:25:58;20.38;;;9.68;;
51828;SDS011;37881;48.024;8.774;2023-04-06T01:28:24;18.67;;;9.23;;
51828;SDS011;37881;48.024;8.774;2023-04-06T01:30:51;18.42;;;10.05;;
51828;SDS011;37881;48.024;8.774;2023-04-06T01:33:18;20.50;;;10.23;;
51828;SDS011;37881;48.024;8.774;2023-04-06T01:35:44;20.30;;;10.17;;
51828;SDS011;37881;48.024;8.774;2023-04-06T01:38:11;20.65;;;10.00;;
51828;SDS011;37881;48.024;8.774;2023-04-06T01:40:38;18.45;;;9.77;;
51828;SDS011;37881;48.024;8.774;2023-04-06T01:43:05;21.00;;;10.27;;
51828;SDS011;37881;48.024;8.774;2023-04-06T01:45:32;20.58;;;10.25;;
51828;SDS011;37881;48.024;8.774;2023-04-06T01:47:59;20.63;;;9.53;;
51828;SDS011;37881;48.024;8.774;2023-04-06T01:50:26;19.38;;;10.00;;
51828;SDS011;37881;48.024;8.774;2023-04-06T01:52:53;20.38;;;10.07;;
51828;SDS011;37881;48.024;8.774;2023-04-06T01:55:20;20.55;;;10.80;;
51828;SDS011;37881;48.024;8.774;2023-04-06T01:57:47;19.05;;;9.93;;
51828;SDS011;37881;48.024;8.774;2023-04-06T02:00:13;20.10;;;10.37;;
51828;SDS011;37881;48.024;8.774;2023-04-06T02:02:41;20.20;;;9.90;;
51828;SDS011;37881;48.024;8.774;2023-04-06T02:05:08;21.40;;;10.85;;
51828;SDS011;37881;48.024;8.774;2023-04-06T02:07:35;18.55;;;10.05;;
51828;SDS011;37881;48.024;8.774;2023-04-06T02:10:02;21.58;;;9.70;;
51828;SDS011;37881;48.024;8.774;2023-04-06T02:12:29;21.17;;;10.80;;
51828;SDS011;37881;48.024;8.774;2023-04-06T02:14:55;19.85;;;10.38;;
51828;SDS011;37881;48.024;8.774;2023-04-06T02:17:22;18.33;;;9.70;;
51828;SDS011;37881;48.024;8.774;2023-04-06T02:19:49;21.85;;;10.65;;
51828;SDS011;37881;48.024;8.774;2023-04-06T02:22:16;20.48;;;10.07;;
51828;SDS011;37881;48.024;8.774;2023-04-06T02:24:42;20.40;;;10.13;;
51828;SDS011;37881;48.024;8.774;2023-04-06T02:27:09;21.17;;;11.13;;
51828;SDS011;37881;48.024;8.774;2023-04-06T02:29:36;22.15;;;11.35;;
51828;SDS011;37881;48.024;8.774;2023-04-06T02:32:03;20.30;;;10.30;;
51828;SDS011;37881;48.024;8.774;2023-04-06T02:34:30;21.00;;;10.05;;
51828;SDS011;37881;48.024;8.774;2023-04-06T02:36:57;20.93;;;9.90;;
51828;SDS011;37881;48.024;8.774;2023-04-06T02:39:23;21.65;;;10.15;;
51828;SDS011;37881;48.024;8.774;2023-04-06T02:41:50;20.95;;;10.10;;
51828;SDS011;37881;48.024;8.774;2023-04-06T02:44:17;23.05;;;11.00;;
51828;SDS011;37881;48.024;8.774;2023-04-06T02:46:43;23.27;;;10.98;;
51828;SDS011;37881;48.024;8.774;2023-04-06T02:49:10;19.83;;;9.93;;
51828;SDS011;37881;48.024;8.774;2023-04-06T02:51:37;22.77;;;10.73;;
51828;SDS011;37881;48.024;8.774;2023-04-06T02:54:04;22.90;;;10.75;;
51828;SDS011;37881;48.024;8.774;2023-04-06T02:56:31;22.98;;;10.57;;
51828;SDS011;37881;48.024;8.774;2023-04-06T02:58:57;23.70;;;11.55;;
51828;SDS011;37881;48.024;8.774;2023-04-06T03:01:25;21.33;;;10.43;;
51828;SDS011;37881;48.024;8.774;2023-04-06T03:03:52;20.73;;;11.10;;
51828;SDS011;37881;48.024;8.774;2023-04-06T03:06:19;22.45;;;10.52;;
51828;SDS011;37881;48.024;8.774;2023-04-06T03:08:46;21.10;;;10.30;;
51828;SDS011;37881;48.024;8.774;2023-04-06T03:11:13;21.33;;;10.75;;
51828;SDS011;37881;48.024;8.774;2023-04-06T03:13:40;22.13;;;10.63;;
51828;SDS011;37881;48.024;8.774;2023-04-06T03:16:07;23.92;;;12.23;;
51828;SDS011;37881;48.024;8.774;2023-04-06T03:18:33;20.92;;;11.05;;
51828;SDS011;37881;48.024;8.774;2023-04-06T03:21:00;22.75;;;11.48;;
51828;SDS011;37881;48.024;8.774;2023-04-06T03:23:27;22.45;;;10.88;;
51828;SDS011;37881;48.024;8.774;2023-04-06T03:25:54;24.03;;;11.07;;
51828;SDS011;37881;48.024;8.774;2023-04-06T03:28:20;20.88;;;10.60;;
51828;SDS011;37881;48.024;8.774;2023-04-06T03:30:47;22.50;;;11.25;;
51828;SDS011;37881;48.024;8.774;2023-04-06T03:33:15;22.20;;;10.63;;
51828;SDS011;37881;48.024;8.774;2023-04-06T03:35:41;22.13;;;10.63;;
51828;SDS011;37881;48.024;8.774;2023-04-06T03:38:08;22.40;;;11.17;;
51828;SDS011;37881;48.024;8.774;2023-04-06T03:40:35;22.33;;;10.80;;
51828;SDS011;37881;48.024;8.774;2023-04-06T03:43:02;46.78;;;20.33;;
51828;SDS011;37881;48.024;8.774;2023-04-06T03:45:28;37.42;;;16.15;;
51828;SDS011;37881;48.024;8.774;2023-04-06T03:47:55;24.50;;;12.32;;
51828;SDS011;37881;48.024;8.774;2023-04-06T03:50:22;24.00;;;11.20;;
51828;SDS011;37881;48.024;8.774;2023-04-06T03:52:49;23.60;;;11.15;;
51828;SDS011;37881;48.024;8.774;2023-04-06T03:55:16;22.08;;;11.93;;
51828;SDS011;37881;48.024;8.774;2023-04-06T03:57:42;22.65;;;11.75;;
51828;SDS011;37881;48.024;8.774;2023-04-06T04:00:09;23.17;;;11.20;;
51828;SDS011;37881;48.024;8.774;2023-04-06T04:02:36;20.43;;;10.83;;
51828;SDS011;37881;48.024;8.774;2023-04-06T04:05:03;23.25;;;11.15;;
51828;SDS011;37881;48.024;8.774;2023-04-06T04:07:30;24.08;;;12.48;;
51828;SDS011;37881;48.024;8.774;2023-04-06T04:09:57;27.05;;;12.90;;
51828;SDS011;37881;48.024;8.774;2023-04-06T04:12:24;25.33;;;13.30;;
51828;SDS011;37881;48.024;8.774;2023-04-06T04:14:50;23.30;;;11.30;;
51828;SDS011;37881;48.024;8.774;2023-04-06T04:17:17;22.20;;;11.27;;
51828;SDS011;37881;48.024;8.774;2023-04-06T04:19:44;23.70;;;11.60;;
51828;SDS011;37881;48.024;8.774;2023-04-06T04:22:10;24.20;;;11.13;;
51828;SDS011;37881;48.024;8.774;2023-04-06T04:24:37;23.75;;;11.57;;
51828;SDS011;37881;48.024;8.774;2023-04-06T04:27:04;21.70;;;11.10;;
51828;SDS011;37881;48.024;8.774;2023-04-06T04:29:31;22.85;;;11.95;;
51828;SDS011;37881;48.024;8.774;2023-04-06T04:31:58;23.33;;;11.88;;
51828;SDS011;37881;48.024;8.774;2023-04-06T04:34:24;23.60;;;12.10;;
51828;SDS011;37881;48.024;8.774;2023-04-06T04:36:52;23.75;;;11.93;;
51828;SDS011;37881;48.024;8.774;2023-04-06T04:39:19;23.03;;;11.30;;
51828;SDS011;37881;48.024;8.774;2023-04-06T04:41:46;23.83;;;11.15;;
51828;SDS011;37881;48.024;8.774;2023-04-06T04:44:12;22.40;;;11.70;;
51828;SDS011;37881;48.024;8.774;2023-04-06T04:46:39;24.40;;;12.85;;
51828;SDS011;37881;48.024;8.774;2023-04-06T04:49:07;41.78;;;18.70;;
51828;SDS011;37881;48.024;8.774;2023-04-06T04:51:34;25.87;;;12.50;;
51828;SDS011;37881;48.024;8.774;2023-04-06T04:54:02;26.45;;;12.70;;
51828;SDS011;37881;48.024;8.774;2023-04-06T04:56:29;32.42;;;15.80;;
51828;SDS011;37881;48.024;8.774;2023-04-06T04:58:56;23.25;;;11.88;;
51828;SDS011;37881;48.024;8.774;2023-04-06T05:01:23;22.55;;;11.85;;
51828;SDS011;37881;48.024;8.774;2023-04-06T05:03:49;24.07;;;12.53;;
51828;SDS011;37881;48.024;8.774;2023-04-06T05:06:17;38.30;;;17.60;;
51828;SDS011;37881;48.024;8.774;2023-04-06T05:08:45;28.02;;;13.35;;
51828;SDS011;37881;48.024;8.774;2023-04-06T05:11:12;24.58;;;11.98;;
51828;SDS011;37881;48.024;8.774;2023-04-06T05:13:39;25.65;;;12.40;;
51828;SDS011;37881;48.024;8.774;2023-04-06T05:16:05;26.60;;;13.83;;
51828;SDS011;37881;48.024;8.774;2023-04-06T05:18:32;28.70;;;13.50;;
51828;SDS011;37881;48.024;8.774;2023-04-06T05:21:00;25.73;;;13.77;;
51828;SDS011;37881;48.024;8.774;2023-04-06T05:23:27;28.13;;;13.15;;
51828;SDS011;37881;48.024;8.774;2023-04-06T05:25:53;27.38;;;13.07;;
51828;SDS011;37881;48.024;8.774;2023-04-06T05:28:20;24.90;;;12.50;;
51828;SDS011;37881;48.024;8.774;2023-04-06T05:30:47;29.42;;;13.88;;
51828;SDS011;37881;48.024;8.774;2023-04-06T05:33:13;26.38;;;13.98;;
51828;SDS011;37881;48.024;8.774;2023-04-06T05:35:40;25.80;;;13.65;;
51828;SDS011;37881;48.024;8.774;2023-04-06T05:38:08;30.55;;;14.93;;
51828;SDS011;37881;48.024;8.774;2023-04-06T05:40:36;26.77;;;13.67;;
51828;SDS011;37881;48.024;8.774;2023-04-06T05:43:04;22.30;;;11.95;;
51828;SDS011;37881;48.024;8.774;2023-04-06T05:45:31;24.23;;;12.50;;
51828;SDS011;37881;48.024;8.774;2023-04-06T05:47:58;25.50;;;11.50;;
51828;SDS011;37881;48.024;8.774;2023-04-06T05:50:25;27.95;;;12.85;;
51828;SDS011;37881;48.024;8.774;2023-04-06T05:52:51;24.80;;;12.10;;
51828;SDS011;37881;48.024;8.774;2023-04-06T05:55:18;22.05;;;12.38;;
51828;SDS011;37881;48.024;8.774;2023-04-06T05:57:45;27.10;;;14.48;;
51828;SDS011;37881;48.024;8.774;2023-04-06T06:00:12;30.10;;;13.80;;
51828;SDS011;37881;48.024;8.774;2023-04-06T06:02:39;30.23;;;14.95;;
51828;SDS011;37881;48.024;8.774;2023-04-06T06:05:06;27.23;;;13.17;;
51828;SDS011;37881;48.024;8.774;2023-04-06T06:07:33;29.98;;;14.90;;
51828;SDS011;37881;48.024;8.774;2023-04-06T06:10:00;40.17;;;19.15;;
51828;SDS011;37881;48.024;8.774;2023-04-06T06:12:27;36.42;;;15.32;;
51828;SDS011;37881;48.024;8.774;2023-04-06T06:14:54;40.25;;;17.67;;
51828;SDS011;37881;48.024;8.774;2023-04-06T06:17:21;31.37;;;14.43;;
51828;SDS011;37881;48.024;8.774;2023-04-06T06:19:48;32.22;;;14.43;;
51828;SDS011;37881;48.024;8.774;2023-04-06T06:22:15;29.77;;;13.70;;
51828;SDS011;37881;48.024;8.774;2023-04-06T06:24:42;31.17;;;15.07;;
51828;SDS011;37881;48.024;8.774;2023-04-06T06:27:08;31.25;;;16.00;;
51828;SDS011;37881;48.024;8.774;2023-04-06T06:29:35;26.77;;;14.37;;
51828;SDS011;37881;48.024;8.774;2023-04-06T06:32:03;26.65;;;14.05;;
51828;SDS011;37881;48.024;8.774;2023-04-06T06:34:30;25.55;;;13.38;;
51828;SDS011;37881;48.024;8.774;2023-04-06T06:36:57;27.00;;;13.48;;
51828;SDS011;37881;48.024;8.774;2023-04-06T06:39:24;26.73;;;14.80;;
51828;SDS011;37881;48.024;8.774;2023-04-06T06:41:51;25.50;;;13.30;;
51828;SDS011;37881;48.024;8.774;2023-04-06T06:44:18;28.13;;;14.07;;
51828;SDS011;37881;48.024;8.774;2023-04-06T06:46:44;26.52;;;13.43;;
51828;SDS011;37881;48.024;8.774;2023-04-06T06:49:11;25.80;;;13.93;;
51828;SDS011;37881;48.024;8.774;2023-04-06T06:51:38;24.73;;;13.95;;
51828;SDS011;37881;48.024;8.774;2023-04-06T06:54:05;28.70;;;14.80;;
51828;SDS011;37881;48.024;8.774;2023-04-06T06:56:33;23.33;;;13.65;;
51828;SDS011;37881;48.024;8.774;2023-04-06T06:59:02;25.40;;;14.13;;
51828;SDS011;37881;48.024;8.774;2023-04-06T07:01:28;24.65;;;13.98;;
51828;SDS011;37881;48.024;8.774;2023-04-06T07:03:55;20.70;;;13.85;;
51828;SDS011;37881;48.024;8.774;2023-04-06T07:06:22;21.73;;;14.37;;
51828;SDS011;37881;48.024;8.774;2023-04-06T07:08:49;18.67;;;13.90;;
51828;SDS011;37881;48.024;8.774;2023-04-06T07:11:16;19.83;;;13.75;;
51828;SDS011;37881;48.024;8.774;2023-04-06T07:13:42;18.60;;;13.63;;
51828;SDS011;37881;48.024;8.774;2023-04-06T07:16:09;21.85;;;13.80;;
51828;SDS011;37881;48.024;8.774;2023-04-06T07:18:36;18.77;;;13.83;;
51828;SDS011;37881;48.024;8.774;2023-04-06T07:21:02;16.95;;;12.98;;
51828;SDS011;37881;48.024;8.774;2023-04-06T07:23:29;18.58;;;13.95;;
51828;SDS011;37881;48.024;8.774;2023-04-06T07:25:56;18.52;;;13.25;;
51828;SDS011;37881;48.024;8.774;2023-04-06T07:28:23;18.67;;;13.40;;
51828;SDS011;37881;48.024;8.774;2023-04-06T07:30:50;21.73;;;14.60;;
51828;SDS011;37881;48.024;8.774;2023-04-06T07:33:16;20.35;;;13.60;;
51828;SDS011;37881;48.024;8.774;2023-04-06T07:35:43;17.67;;;13.52;;
51828;SDS011;37881;48.024;8.774;2023-04-06T07:38:10;16.88;;;13.43;;
51828;SDS011;37881;48.024;8.774;2023-04-06T07:40:37;18.10;;;13.88;;
51828;SDS011;37881;48.024;8.774;2023-04-06T07:43:04;17.07;;;14.03;;
51828;SDS011;37881;48.024;8.774;2023-04-06T07:45:31;17.33;;;13.13;;
51828;SDS011;37881;48.024;8.774;2023-04-06T07:47:57;17.88;;;13.32;;
51828;SDS011;37881;48.024;8.774;2023-04-06T07:50:24;16.35;;;13.50;;
51828;SDS011;37881;48.024;8.774;2023-04-06T07:52:51;19.48;;;13.95;;
51828;SDS011;37881;48.024;8.774;2023-04-06T07:55:18;17.23;;;13.80;;
51828;SDS011;37881;48.024;8.774;2023-04-06T07:57:45;17.30;;;12.93;;
51828;SDS011;37881;48.024;8.774;2023-04-06T08:00:12;19.27;;;13.55;;
51828;SDS011;37881;48.024;8.774;2023-04-06T08:02:39;16.02;;;13.27;;
51828;SDS011;37881;48.024;8.774;2023-04-06T08:05:06;15.27;;;12.15;;
51828;SDS011;37881;48.024;8.774;2023-04-06T08:07:33;15.43;;;12.67;;
51828;SDS011;37881;48.024;8.774;2023-04-06T08:10:01;15.27;;;12.30;;
51828;SDS011;37881;48.024;8.774;2023-04-06T08:12:28;17.52;;;11.85;;
51828;SDS011;37881;48.024;8.774;2023-04-06T08:14:56;14.95;;;11.25;;
51828;SDS011;37881;48.024;8.774;2023-04-06T08:17:23;12.65;;;10.00;;
51828;SDS011;37881;48.024;8.774;2023-04-06T08:19:50;11.47;;;9.80;;
51828;SDS011;37881;48.024;8.774;2023-04-06T08:22:16;12.82;;;10.07;;
51828;SDS011;37881;48.024;8.774;2023-04-06T08:24:43;13.63;;;11.38;;
51828;SDS011;37881;48.024;8.774;2023-04-06T08:27:10;13.18;;;11.35;;
51828;SDS011;37881;48.024;8.774;2023-04-06T08:29:37;14.70;;;11.90;;
51828;SDS011;37881;48.024;8.774;2023-04-06T08:32:03;12.30;;;9.80;;
51828;SDS011;37881;48.024;8.774;2023-04-06T08:34:32;10.68;;;8.48;;
51828;SDS011;37881;48.024;8.774;2023-04-06T08:36:59;10.93;;;8.20;;
51828;SDS011;37881;48.024;8.774;2023-04-06T08:39:27;10.95;;;8.15;;
51828;SDS011;37881;48.024;8.774;2023-04-06T08:41:55;11.02;;;8.30;;
51828;SDS011;37881;48.024;8.774;2023-04-06T08:44:23;11.30;;;8.47;;
51828;SDS011;37881;48.024;8.774;2023-04-06T08:46:50;10.18;;;8.10;;
51828;SDS011;37881;48.024;8.774;2023-04-06T08:49:19;10.20;;;8.40;;
51828;SDS011;37881;48.024;8.774;2023-04-06T08:51:46;11.43;;;8.35;;
51828;SDS011;37881;48.024;8.774;2023-04-06T08:54:15;9.73;;;8.00;;
51828;SDS011;37881;48.024;8.774;2023-04-06T08:56:42;10.17;;;8.40;;
51828;SDS011;37881;48.024;8.774;2023-04-06T08:59:09;11.32;;;8.30;;
51828;SDS011;37881;48.024;8.774;2023-04-06T09:01:38;11.10;;;7.88;;
51828;SDS011;37881;48.024;8.774;2023-04-06T09:04:07;12.35;;;8.23;;
51828;SDS011;37881;48.024;8.774;2023-04-06T09:06:38;9.25;;;7.63;;
51828;SDS011;37881;48.024;8.774;2023-04-06T09:09:06;10.37;;;8.37;;
51828;SDS011;37881;48.024;8.774;2023-04-06T09:11:54;9.50;;;7.70;;
51828;SDS011;37881;48.024;8.774;2023-04-06T09:14:37;9.90;;;6.90;;
51828;SDS011;37881;48.024;8.774;2023-04-06T09:17:04;8.88;;;6.75;;
51828;SDS011;37881;48.024;8.774;2023-04-06T09:19:32;8.43;;;6.65;;
51828;SDS011;37881;48.024;8.774;2023-04-06T09:22:05;6.97;;;6.00;;
51828;SDS011;37881;48.024;8.774;2023-04-06T09:27:12;7.30;;;5.90;;
51828;SDS011;37881;48.024;8.774;2023-04-06T09:29:43;8.30;;;5.97;;
51828;SDS011;37881;48.024;8.774;2023-04-06T09:32:11;8.05;;;5.95;;
51828;SDS011;37881;48.024;8.774;2023-04-06T09:34:38;7.83;;;6.00;;
51828;SDS011;37881;48.024;8.774;2023-04-06T09:37:12;7.93;;;6.25;;
51828;SDS011;37881;48.024;8.774;2023-04-06T09:39:42;10.60;;;7.75;;
51828;SDS011;37881;48.024;8.774;2023-04-06T09:42:09;8.27;;;5.78;;
51828;SDS011;37881;48.024;8.774;2023-04-06T09:44:36;8.05;;;5.90;;
51828;SDS011;37881;48.024;8.774;2023-04-06T09:47:04;10.60;;;7.60;;
51828;SDS011;37881;48.024;8.774;2023-04-06T09:49:33;6.97;;;5.45;;
51828;SDS011;37881;48.024;8.774;2023-04-06T09:52:03;7.65;;;6.28;;
51828;SDS011;37881;48.024;8.774;2023-04-06T09:54:31;7.28;;;5.90;;
51828;SDS011;37881;48.024;8.774;2023-04-06T10:02:13;7.65;;;5.57;;
51828;SDS011;37881;48.024;8.774;2023-04-06T10:04:53;7.20;;;5.40;;
51828;SDS011;37881;48.024;8.774;2023-04-06T10:07:25;8.50;;;5.53;;
51828;SDS011;37881;48.024;8.774;2023-04-06T10:09:53;7.32;;;5.57;;
51828;SDS011;37881;48.024;8.774;2023-04-06T10:12:21;6.40;;;5.33;;
51828;SDS011;37881;48.024;8.774;2023-04-06T10:14:48;8.82;;;5.78;;
51828;SDS011;37881;48.024;8.774;2023-04-06T10:17:15;7.45;;;5.80;;
51828;SDS011;37881;48.024;8.774;2023-04-06T10:22:12;8.00;;;6.22;;
51828;SDS011;37881;48.024;8.774;2023-04-06T10:25:01;7.73;;;6.50;;
51828;SDS011;37881;48.024;8.774;2023-04-06T10:27:29;7.75;;;6.30;;
51828;SDS011;37881;48.024;8.774;2023-04-06T10:30:03;8.18;;;6.10;;
51828;SDS011;37881;48.024;8.774;2023-04-06T10:32:35;7.20;;;5.88;;
51828;SDS011;37881;48.024;8.774;2023-04-06T10:35:09;7.72;;;6.20;;
51828;SDS011;37881;48.024;8.774;2023-04-06T10:38:00;8.97;;;6.40;;
51828;SDS011;37881;48.024;8.774;2023-04-06T10:40:28;10.32;;;6.30;;
51828;SDS011;37881;48.024;8.774;2023-04-06T10:43:07;7.95;;;5.40;;
51828;SDS011;37881;48.024;8.774;2023-04-06T10:45:35;6.85;;;5.57;;
51828;SDS011;37881;48.024;8.774;2023-04-06T10:48:17;7.70;;;6.00;;
51828;SDS011;37881;48.024;8.774;2023-04-06T10:50:46;12.70;;;7.70;;
51828;SDS011;37881;48.024;8.774;2023-04-06T10:56:09;12.90;;;7.40;;
51828;SDS011;37881;48.024;8.774;2023-04-06T10:58:38;9.25;;;7.07;;
51828;SDS011;37881;48.024;8.774;2023-04-06T11:01:12;11.30;;;7.88;;
51828;SDS011;37881;48.024;8.774;2023-04-06T11:06:22;9.23;;;7.47;;
51828;SDS011;37881;48.024;8.774;2023-04-06T11:08:52;9.40;;;7.63;;
51828;SDS011;37881;48.024;8.774;2023-04-06T11:11:20;10.13;;;7.60;;
51828;SDS011;37881;48.024;8.774;2023-04-06T11:16:17;9.43;;;8.23;;
51828;SDS011;37881;48.024;8.774;2023-04-06T11:18:53;9.23;;;7.80;;
51828;SDS011;37881;48.024;8.774;2023-04-06T11:21:33;11.35;;;8.45;;
51828;SDS011;37881;48.024;8.774;2023-04-06T11:24:06;9.93;;;7.88;;
51828;SDS011;37881;48.024;8.774;2023-04-06T11:26:37;11.68;;;8.50;;
51828;SDS011;37881;48.024;8.774;2023-04-06T11:29:07;10.37;;;8.03;;
51828;SDS011;37881;48.024;8.774;2023-04-06T11:31:41;10.52;;;7.60;;
51828;SDS011;37881;48.024;8.774;2023-04-06T11:34:19;9.93;;;7.88;;
51828;SDS011;37881;48.024;8.774;2023-04-06T11:36:47;10.90;;;7.53;;
51828;SDS011;37881;48.024;8.774;2023-04-06T11:39:19;11.70;;;8.05;;
51828;SDS011;37881;48.024;8.774;2023-04-06T11:41:50;10.40;;;7.80;;
51828;SDS011;37881;48.024;8.774;2023-04-06T11:44:28;12.27;;;8.25;;
51828;SDS011;37881;48.024;8.774;2023-04-06T11:46:56;11.25;;;8.10;;
51828;SDS011;37881;48.024;8.774;2023-04-06T11:49:27;11.52;;;8.35;;
51828;SDS011;37881;48.024;8.774;2023-04-06T11:51:58;11.18;;;8.20;;
51828;SDS011;37881;48.024;8.774;2023-04-06T11:54:29;10.93;;;8.23;;
51828;SDS011;37881;48.024;8.774;2023-04-06T11:57:03;12.75;;;9.18;;
51828;SDS011;37881;48.024;8.774;2023-04-06T11:59:32;11.98;;;9.20;;
51828;SDS011;37881;48.024;8.774;2023-04-06T12:02:00;12.80;;;8.93;;
51828;SDS011;37881;48.024;8.774;2023-04-06T12:04:28;12.38;;;8.60;;
51828;SDS011;37881;48.024;8.774;2023-04-06T12:06:55;13.57;;;9.33;;
51828;SDS011;37881;48.024;8.774;2023-04-06T12:09:22;12.02;;;8.70;;
51828;SDS011;37881;48.024;8.774;2023-04-06T12:11:49;12.13;;;8.52;;
51828;SDS011;37881;48.024;8.774;2023-04-06T12:14:16;11.50;;;8.10;;
51828;SDS011;37881;48.024;8.774;2023-04-06T12:16:43;12.48;;;8.30;;
51828;SDS011;37881;48.024;8.774;2023-04-06T12:19:10;14.90;;;9.00;;
51828;SDS011;37881;48.024;8.774;2023-04-06T12:21:37;13.27;;;9.00;;
51828;SDS011;37881;48.024;8.774;2023-04-06T12:24:04;12.40;;;8.40;;
51828;SDS011;37881;48.024;8.774;2023-04-06T12:26:31;11.27;;;7.72;;
51828;SDS011;37881;48.024;8.774;2023-04-06T12:28:59;12.40;;;8.35;;
51828;SDS011;37881;48.024;8.774;2023-04-06T12:31:37;13.63;;;9.73;;
51828;SDS011;37881;48.024;8.774;2023-04-06T12:34:07;11.35;;;8.15;;
51828;SDS011;37881;48.024;8.774;2023-04-06T12:36:34;12.73;;;8.45;;
51828;SDS011;37881;48.024;8.774;2023-04-06T12:39:01;12.63;;;8.77;;
51828;SDS011;37881;48.024;8.774;2023-04-06T12:41:29;12.23;;;8.50;;
51828;SDS011;37881;48.024;8.774;2023-04-06T12:43:56;11.90;;;8.50;;
51828;SDS011;37881;48.024;8.774;2023-04-06T12:46:23;13.13;;;9.40;;
51828;SDS011;37881;48.024;8.774;2023-04-06T12:48:51;12.27;;;9.20;;
51828;SDS011;37881;48.024;8.774;2023-04-06T12:51:20;11.55;;;8.20;;
51828;SDS011;37881;48.024;8.774;2023-04-06T12:53:47;11.07;;;8.38;;
51828;SDS011;37881;48.024;8.774;2023-04-06T12:56:14;13.33;;;7.70;;
51828;SDS011;37881;48.024;8.774;2023-04-06T12:58:47;11.25;;;7.85;;
51828;SDS011;37881;48.024;8.774;2023-04-06T13:01:14;10.43;;;7.05;;
51828;SDS011;37881;48.024;8.774;2023-04-06T13:03:41;11.60;;;7.45;;
51828;SDS011;37881;48.024;8.774;2023-04-06T13:06:08;12.45;;;7.82;;
51828;SDS011;37881;48.024;8.774;2023-04-06T13:08:36;10.43;;;7.30;;
51828;SDS011;37881;48.024;8.774;2023-04-06T13:11:05;10.65;;;6.88;;
51828;SDS011;37881;48.024;8.774;2023-04-06T13:13:35;9.95;;;7.10;;
51828;SDS011;37881;48.024;8.774;2023-04-06T13:16:04;10.40;;;7.03;;
51828;SDS011;37881;48.024;8.774;2023-04-06T13:18:33;9.45;;;6.70;;
51828;SDS011;37881;48.024;8.774;2023-04-06T13:21:03;10.20;;;6.80;;
51828;SDS011;37881;48.024;8.774;2023-04-06T13:23:29;11.02;;;7.30;;
51828;SDS011;37881;48.024;8.774;2023-04-06T13:26:03;12.05;;;7.18;;
51828;SDS011;37881;48.024;8.774;2023-04-06T13:28:32;9.48;;;6.63;;
51828;SDS011;37881;48.024;8.774;2023-04-06T13:31:00;10.77;;;7.22;;
51828;SDS011;37881;48.024;8.774;2023-04-06T13:33:28;9.73;;;6.90;;
51828;SDS011;37881;48.024;8.774;2023-04-06T13:35:56;10.75;;;7.20;;
51828;SDS011;37881;48.024;8.774;2023-04-06T13:38:23;10.27;;;7.00;;
51828;SDS011;37881;48.024;8.774;2023-04-06T13:40:50;9.73;;;7.05;;
51828;SDS011;37881;48.024;8.774;2023-04-06T13:43:17;10.95;;;6.78;;
51828;SDS011;37881;48.024;8.774;2023-04-06T13:45:50;11.47;;;7.60;;
51828;SDS011;37881;48.024;8.774;2023-04-06T13:48:18;10.93;;;7.10;;
51828;SDS011;37881;48.024;8.774;2023-04-06T13:50:45;10.60;;;7.55;;
51828;SDS011;37881;48.024;8.774;2023-04-06T13:53:12;11.00;;;7.15;;
51828;SDS011;37881;48.024;8.774;2023-04-06T13:55:39;10.55;;;7.20;;
51828;SDS011;37881;48.024;8.774;2023-04-06T13:58:06;10.47;;;6.70;;
51828;SDS011;37881;48.024;8.774;2023-04-06T14:00:33;13.00;;;8.13;;
51828;SDS011;37881;48.024;8.774;2023-04-06T14:03:00;10.40;;;7.35;;
51828;SDS011;37881;48.024;8.774;2023-04-06T14:05:30;12.45;;;7.80;;
51828;SDS011;37881;48.024;8.774;2023-04-06T14:07:57;10.98;;;6.30;;
51828;SDS011;37881;48.024;8.774;2023-04-06T14:10:24;12.63;;;8.00;;
51828;SDS011;37881;48.024;8.774;2023-04-06T14:12:53;16.25;;;9.40;;
51828;SDS011;37881;48.024;8.774;2023-04-06T14:15:20;17.95;;;11.15;;
51828;SDS011;37881;48.024;8.774;2023-04-06T14:17:48;13.30;;;8.40;;
51828;SDS011;37881;48.024;8.774;2023-04-06T14:20:15;11.57;;;7.90;;
51828;SDS011;37881;48.024;8.774;2023-04-06T14:22:42;10.80;;;7.60;;
51828;SDS011;37881;48.024;8.774;2023-04-06T14:25:09;12.30;;;7.88;;
51828;SDS011;37881;48.024;8.774;2023-04-06T14:27:37;10.25;;;7.18;;
51828;SDS011;37881;48.024;8.774;2023-04-06T14:30:05;10.50;;;7.13;;
51828;SDS011;37881;48.024;8.774;2023-04-06T14:32:32;20.55;;;12.18;;
51828;SDS011;37881;48.024;8.774;2023-04-06T14:34:59;11.33;;;7.70;;
51828;SDS011;37881;48.024;8.774;2023-04-06T14:37:25;12.63;;;8.23;;
51828;SDS011;37881;48.024;8.774;2023-04-06T14:39:52;12.05;;;8.07;;
51828;SDS011;37881;48.024;8.774;2023-04-06T14:42:19;13.48;;;9.10;;
51828;SDS011;37881;48.024;8.774;2023-04-06T14:44:46;13.73;;;9.18;;
51828;SDS011;37881;48.024;8.774;2023-04-06T14:47:12;11.90;;;8.27;;
51828;SDS011;37881;48.024;8.774;2023-04-06T14:49:42;14.38;;;9.65;;
51828;SDS011;37881;48.024;8.774;2023-04-06T14:52:08;12.45;;;8.60;;